createdAt,value
2022-11-01T00:01:34.966Z,14.40
2022-11-01T00:04:20.792Z,14.40
2022-11-01T00:07:06.806Z,14.30
2022-11-01T00:09:52.663Z,14.30
2022-11-01T00:12:38.457Z,14.30
2022-11-01T00:15:24.039Z,14.40
2022-11-01T00:18:09.489Z,14.50
2022-11-01T00:20:54.915Z,14.50
2022-11-01T00:23:40.740Z,14.60
2022-11-01T00:26:26.297Z,14.60
2022-11-01T00:29:12.981Z,14.70
2022-11-01T00:31:58.108Z,14.70
2022-11-01T00:34:43.695Z,14.70
2022-11-01T00:37:29.788Z,14.60
2022-11-01T00:40:15.369Z,14.70
2022-11-01T00:43:00.997Z,14.70
2022-11-01T00:45:46.559Z,14.70
2022-11-01T00:48:32.497Z,14.70
2022-11-01T00:51:18.123Z,14.70
2022-11-01T00:54:03.697Z,14.60
2022-11-01T00:56:49.054Z,14.40
2022-11-01T00:59:34.478Z,14.30
2022-11-01T01:02:20.817Z,14.40
2022-11-01T01:05:07.510Z,14.40
2022-11-01T01:07:53.153Z,14.40
2022-11-01T01:10:38.839Z,14.40
2022-11-01T01:13:24.370Z,14.30
2022-11-01T01:16:11.861Z,14.40
2022-11-01T01:18:58.179Z,14.40
2022-11-01T01:21:45.190Z,14.50
2022-11-01T01:24:32.226Z,14.50
2022-11-01T01:27:18.256Z,14.40
2022-11-01T01:30:05.176Z,14.40
2022-11-01T01:32:51.034Z,14.40
2022-11-01T01:35:38.433Z,14.40
2022-11-01T01:38:23.929Z,14.50
2022-11-01T01:41:27.862Z,14.60
2022-11-01T01:44:42.528Z,14.70
2022-11-01T01:47:37.299Z,14.80
2022-11-01T01:50:39.322Z,14.90
2022-11-01T01:53:37.523Z,14.90
2022-11-01T01:56:36.087Z,15.00
2022-11-01T01:59:22.012Z,15.00
2022-11-01T02:02:07.718Z,14.90
2022-11-01T02:05:02.845Z,14.90
2022-11-01T02:07:49.303Z,15.00
2022-11-01T02:10:35.048Z,15.00
2022-11-01T02:13:20.724Z,15.00
2022-11-01T02:16:43.979Z,14.90
2022-11-01T02:19:57.665Z,14.90
2022-11-01T02:23:20.968Z,14.80
2022-11-01T02:26:39.693Z,14.80
2022-11-01T02:29:27.602Z,14.90
2022-11-01T02:32:37.720Z,15.00
2022-11-01T02:35:44.755Z,15.10
2022-11-01T02:38:47.373Z,15.20
2022-11-01T02:41:55.812Z,15.20
2022-11-01T02:44:59.389Z,15.30
2022-11-01T02:47:44.928Z,15.50
2022-11-01T02:50:40.317Z,15.60
2022-11-01T02:53:26.016Z,15.70
2022-11-01T02:56:11.702Z,15.70
2022-11-01T02:58:57.907Z,15.70
2022-11-01T03:01:49.558Z,15.70
2022-11-01T03:04:36.345Z,15.80
2022-11-01T03:07:21.765Z,15.80
2022-11-01T03:10:08.143Z,15.80
2022-11-01T03:13:13.686Z,15.80
2022-11-01T03:16:33.914Z,15.90
2022-11-01T03:19:32.794Z,15.90
2022-11-01T03:22:40.711Z,16.00
2022-11-01T03:25:40.312Z,15.90
2022-11-01T03:28:48.242Z,15.90
2022-11-01T03:31:38.891Z,15.90
2022-11-01T03:34:25.558Z,16.00
2022-11-01T03:37:12.961Z,16.00
2022-11-01T03:40:03.514Z,16.00
2022-11-01T03:42:51.807Z,16.00
2022-11-01T03:45:40.282Z,16.00
2022-11-01T03:48:26.009Z,16.00
2022-11-01T03:51:11.411Z,16.00
2022-11-01T03:53:57.116Z,15.90
2022-11-01T03:56:42.965Z,15.90
2022-11-01T03:59:28.421Z,15.80
2022-11-01T04:02:14.239Z,15.80
2022-11-01T04:04:59.393Z,15.70
2022-11-01T04:07:45.761Z,15.70
2022-11-01T04:10:31.516Z,15.60
2022-11-01T04:13:16.953Z,15.70
2022-11-01T04:16:31.578Z,15.70
2022-11-01T04:19:35.962Z,15.70
2022-11-01T04:22:24.438Z,15.70
2022-11-01T04:25:10.179Z,15.70
2022-11-01T04:27:58.628Z,15.60
2022-11-01T04:30:44.308Z,15.70
2022-11-01T04:33:29.444Z,15.70
2022-11-01T04:36:14.900Z,15.70
2022-11-01T04:39:00.636Z,15.80
2022-11-01T04:41:46.721Z,15.70
2022-11-01T04:44:31.863Z,15.70
2022-11-01T04:47:17.343Z,15.70
2022-11-01T04:50:02.932Z,15.70
2022-11-01T04:52:48.609Z,15.60
2022-11-01T04:55:34.402Z,15.60
2022-11-01T04:58:20.080Z,15.60
2022-11-01T05:01:09.225Z,15.70
2022-11-01T05:03:55.700Z,15.60
2022-11-01T05:06:41.171Z,15.70
2022-11-01T05:09:26.628Z,15.70
2022-11-01T05:12:12.807Z,15.70
2022-11-01T05:14:58.497Z,15.70
2022-11-01T05:17:44.054Z,15.70
2022-11-01T05:20:30.637Z,15.70
2022-11-01T05:23:16.253Z,15.60
2022-11-01T05:26:01.846Z,15.60
2022-11-01T05:28:47.956Z,15.70
2022-11-01T05:31:33.324Z,15.70
2022-11-01T05:34:18.967Z,15.80
2022-11-01T05:37:04.841Z,15.70
2022-11-01T05:39:50.460Z,15.70
2022-11-01T05:42:39.199Z,15.70
2022-11-01T05:45:24.952Z,15.70
2022-11-01T05:48:11.887Z,15.60
2022-11-01T05:50:57.360Z,15.70
2022-11-01T05:53:42.834Z,15.70
2022-11-01T05:56:28.856Z,15.80
2022-11-01T05:59:14.316Z,15.80
2022-11-01T06:02:00.057Z,15.80
2022-11-01T06:04:45.744Z,15.80
2022-11-01T06:07:31.599Z,15.80
2022-11-01T06:10:17.406Z,15.70
2022-11-01T06:13:03.312Z,15.70
2022-11-01T06:15:49.131Z,15.70
2022-11-01T06:18:34.794Z,15.70
2022-11-01T06:21:26.066Z,15.70
2022-11-01T06:24:15.109Z,15.80
2022-11-01T06:27:00.396Z,15.80
2022-11-01T06:29:45.790Z,15.60
2022-11-01T06:32:31.392Z,15.60
2022-11-01T06:35:16.936Z,15.70
2022-11-01T06:38:07.099Z,15.70
2022-11-01T06:40:53.076Z,15.70
2022-11-01T06:43:38.786Z,15.60
2022-11-01T06:46:24.163Z,15.60
2022-11-01T06:49:12.400Z,15.70
2022-11-01T06:52:00.577Z,15.70
2022-11-01T06:54:46.344Z,15.70
2022-11-01T06:57:32.064Z,15.80
2022-11-01T07:00:17.782Z,15.80
2022-11-01T07:03:06.176Z,15.80
2022-11-01T07:05:52.359Z,15.80
2022-11-01T07:08:38.083Z,15.80
2022-11-01T07:11:27.425Z,15.70
2022-11-01T07:14:15.674Z,15.80
2022-11-01T07:17:00.894Z,15.70
2022-11-01T07:19:46.480Z,15.70
2022-11-01T07:22:32.442Z,15.70
2022-11-01T07:25:18.144Z,15.70
2022-11-01T07:28:03.948Z,15.70
2022-11-01T07:30:50.670Z,15.70
2022-11-01T07:33:36.277Z,15.70
2022-11-01T07:36:21.966Z,15.80
2022-11-01T07:39:07.579Z,15.80
2022-11-01T07:41:54.185Z,15.80
2022-11-01T07:44:39.656Z,15.80
2022-11-01T07:47:25.103Z,15.90
2022-11-01T07:50:10.606Z,15.90
2022-11-01T07:53:01.239Z,15.90
2022-11-01T07:55:47.265Z,16.00
2022-11-01T07:58:33.477Z,16.10
2022-11-01T08:01:19.571Z,16.10
2022-11-01T08:04:05.174Z,16.20
2022-11-01T08:06:52.223Z,16.30
2022-11-01T08:09:38.170Z,16.40
2022-11-01T08:12:23.880Z,16.50
2022-11-01T08:15:10.069Z,16.60
2022-11-01T08:17:57.752Z,16.70
2022-11-01T08:20:43.881Z,16.80
2022-11-01T08:23:29.266Z,16.90
2022-11-01T08:26:15.555Z,17.00
2022-11-01T08:29:01.379Z,17.10
2022-11-01T08:31:47.597Z,17.10
2022-11-01T08:34:33.065Z,16.90
2022-11-01T08:37:18.685Z,16.70
2022-11-01T08:40:04.580Z,16.70
2022-11-01T08:42:49.997Z,16.70
2022-11-01T08:45:35.463Z,16.70
2022-11-01T08:48:21.023Z,16.70
2022-11-01T08:51:06.618Z,16.60
2022-11-01T08:53:56.192Z,16.70
2022-11-01T08:56:42.003Z,16.70
2022-11-01T08:59:27.160Z,16.70
2022-11-01T09:02:13.171Z,16.80
2022-11-01T09:05:02.612Z,16.90
2022-11-01T09:07:48.891Z,16.90
2022-11-01T09:10:34.318Z,16.90
2022-11-01T09:13:20.416Z,17.00
2022-11-01T09:16:07.935Z,16.90
2022-11-01T09:18:53.703Z,16.90
2022-11-01T09:21:39.168Z,16.90
2022-11-01T09:24:24.621Z,16.90
2022-11-01T09:27:10.360Z,16.90
2022-11-01T09:29:56.001Z,16.90
2022-11-01T09:32:41.652Z,17.00
2022-11-01T09:35:27.157Z,17.00
2022-11-01T09:38:12.755Z,16.90
2022-11-01T09:41:30.513Z,17.00
2022-11-01T09:44:25.455Z,17.00
2022-11-01T09:47:19.416Z,17.00
2022-11-01T09:50:27.759Z,17.00
2022-11-01T09:53:23.406Z,17.10
2022-11-01T09:56:22.653Z,17.20
2022-11-01T09:59:16.985Z,17.40
2022-11-01T10:02:40.501Z,17.50
2022-11-01T10:06:05.342Z,17.60
2022-11-01T10:09:18.568Z,17.90
2022-11-01T10:12:07.192Z,18.10
2022-11-01T10:15:32.590Z,18.00
2022-11-01T10:18:54.862Z,18.20
2022-11-01T10:21:53.140Z,18.30
2022-11-01T10:24:55.566Z,18.50
2022-11-01T10:28:20.594Z,18.40
2022-11-01T10:31:14.252Z,18.40
2022-11-01T10:34:25.433Z,18.30
2022-11-01T10:37:26.891Z,18.20
2022-11-01T10:40:18.543Z,18.10
2022-11-01T10:43:19.467Z,18.10
2022-11-01T10:46:09.912Z,18.10
2022-11-01T10:49:00.442Z,18.20
2022-11-01T10:51:48.467Z,18.60
2022-11-01T10:54:38.077Z,18.80
2022-11-01T10:57:37.756Z,18.90
2022-11-01T11:00:23.776Z,19.00
2022-11-01T11:03:18.180Z,19.50
2022-11-01T11:06:09.888Z,19.60
2022-11-01T11:08:56.468Z,19.80
2022-11-01T11:11:42.755Z,20.00
2022-11-01T11:14:31.719Z,20.20
2022-11-01T11:17:35.696Z,20.30
2022-11-01T11:20:25.669Z,19.90
2022-11-01T11:23:12.879Z,19.70
2022-11-01T11:26:19.735Z,19.80
2022-11-01T11:29:06.024Z,19.60
2022-11-01T11:31:57.912Z,19.60
2022-11-01T11:34:43.792Z,19.70
2022-11-01T11:37:32.138Z,19.50
2022-11-01T11:40:19.110Z,19.10
2022-11-01T11:43:34.305Z,19.20
2022-11-01T11:46:24.767Z,19.00
2022-11-01T11:49:26.400Z,19.20
2022-11-01T11:52:18.046Z,19.60
2022-11-01T11:55:04.071Z,19.90
2022-11-01T11:57:54.781Z,20.10
2022-11-01T12:00:44.362Z,20.20
2022-11-01T12:03:37.157Z,20.10
2022-11-01T12:06:25.969Z,20.60
2022-11-01T12:09:36.587Z,23.30
2022-11-01T12:12:28.189Z,26.20
2022-11-01T12:15:36.977Z,27.70
2022-11-01T12:18:25.712Z,29.00
2022-11-01T12:21:36.569Z,29.30
2022-11-01T12:24:29.746Z,30.60
2022-11-01T12:27:20.181Z,30.50
2022-11-01T12:30:19.340Z,29.40
2022-11-01T12:33:37.576Z,29.50
2022-11-01T12:36:30.639Z,30.30
2022-11-01T12:39:46.959Z,29.70
2022-11-01T12:42:56.510Z,28.40
2022-11-01T12:45:49.964Z,27.50
2022-11-01T12:48:40.134Z,27.50
2022-11-01T12:51:40.592Z,27.60
2022-11-01T12:55:00.155Z,28.00
2022-11-01T12:57:45.882Z,28.60
2022-11-01T13:00:57.430Z,29.10
2022-11-01T13:04:04.279Z,29.70
2022-11-01T13:07:23.882Z,29.30
2022-11-01T13:10:25.058Z,27.70
2022-11-01T13:13:16.574Z,25.70
2022-11-01T13:16:30.320Z,24.70
2022-11-01T13:19:31.419Z,23.60
2022-11-01T13:22:24.040Z,22.40
2022-11-01T13:25:23.634Z,22.90
2022-11-01T13:28:19.451Z,24.50
2022-11-01T13:31:27.418Z,25.90
2022-11-01T13:34:36.608Z,26.80
2022-11-01T13:37:28.315Z,27.10
2022-11-01T13:40:25.724Z,26.80
2022-11-01T13:43:13.114Z,27.30
2022-11-01T13:46:22.776Z,27.10
2022-11-01T13:49:08.654Z,26.60
2022-11-01T13:52:08.143Z,26.60
2022-11-01T13:54:53.609Z,26.60
2022-11-01T13:57:44.860Z,25.70
2022-11-01T14:00:41.379Z,25.40
2022-11-01T14:03:32.576Z,25.20
2022-11-01T14:06:36.278Z,25.10
2022-11-01T14:09:25.742Z,23.60
2022-11-01T14:12:29.761Z,24.10
2022-11-01T14:15:24.584Z,24.40
2022-11-01T14:18:11.338Z,24.80
2022-11-01T14:20:57.431Z,24.40
2022-11-01T14:23:42.670Z,24.00
2022-11-01T14:26:45.205Z,24.00
2022-11-01T14:29:31.367Z,24.20
2022-11-01T14:32:19.146Z,23.40
2022-11-01T14:35:21.148Z,23.50
2022-11-01T14:38:32.181Z,22.60
2022-11-01T14:41:19.320Z,21.60
2022-11-01T14:44:12.300Z,21.00
2022-11-01T14:47:01.637Z,20.30
2022-11-01T14:49:48.936Z,19.90
2022-11-01T14:52:50.727Z,19.60
2022-11-01T14:55:37.505Z,19.40
2022-11-01T14:58:24.265Z,19.20
2022-11-01T15:01:19.673Z,19.00
2022-11-01T15:04:05.095Z,18.90
2022-11-01T15:06:51.486Z,18.60
2022-11-01T15:09:37.845Z,18.70
2022-11-01T15:12:25.772Z,18.60
2022-11-01T15:15:15.994Z,18.50
2022-11-01T15:18:16.844Z,18.40
2022-11-01T15:21:03.531Z,18.20
2022-11-01T15:23:50.399Z,18.10
2022-11-01T15:26:36.301Z,18.00
2022-11-01T15:29:24.912Z,18.00
2022-11-01T15:32:26.730Z,18.10
2022-11-01T15:35:25.568Z,18.00
2022-11-01T15:38:21.234Z,17.90
2022-11-01T15:41:23.624Z,17.70
2022-11-01T15:44:23.080Z,17.60
2022-11-01T15:47:22.435Z,17.60
2022-11-01T15:50:10.245Z,17.70
2022-11-01T15:52:58.055Z,17.60
2022-11-01T15:55:48.197Z,17.60
2022-11-01T15:58:41.438Z,17.70
2022-11-01T16:01:27.551Z,17.60
2022-11-01T16:04:16.294Z,17.60
2022-11-01T16:07:08.142Z,17.50
2022-11-01T16:09:57.892Z,17.40
2022-11-01T16:12:45.405Z,17.10
2022-11-01T16:15:35.288Z,17.00
2022-11-01T16:18:24.230Z,16.90
2022-11-01T16:21:19.119Z,16.90
2022-11-01T16:24:15.659Z,16.90
2022-11-01T16:27:06.214Z,16.90
2022-11-01T16:29:52.892Z,16.70
2022-11-01T16:32:38.784Z,16.70
2022-11-01T16:35:35.388Z,16.60
2022-11-01T16:38:32.829Z,16.60
2022-11-01T16:41:22.942Z,16.50
2022-11-01T16:44:17.315Z,16.60
2022-11-01T16:47:02.868Z,16.50
2022-11-01T16:49:54.149Z,16.40
2022-11-01T16:52:39.364Z,16.40
2022-11-01T16:55:27.363Z,16.40
2022-11-01T16:58:25.062Z,16.40
2022-11-01T17:01:22.984Z,16.40
2022-11-01T17:04:11.937Z,16.40
2022-11-01T17:06:58.286Z,16.40
2022-11-01T17:09:44.286Z,16.40
2022-11-01T17:12:29.751Z,16.30
2022-11-01T17:15:15.788Z,16.20
2022-11-01T17:18:06.781Z,16.20
2022-11-01T17:20:53.058Z,16.20
2022-11-01T17:23:39.071Z,16.10
2022-11-01T17:26:25.051Z,16.00
2022-11-01T17:29:14.574Z,16.00
2022-11-01T17:32:01.080Z,16.00
2022-11-01T17:34:49.188Z,16.00
2022-11-01T17:37:36.671Z,16.00
2022-11-01T17:40:27.000Z,16.00
2022-11-01T17:43:18.851Z,16.00
2022-11-01T17:46:13.919Z,15.90
2022-11-01T17:48:59.517Z,15.90
2022-11-01T17:51:45.217Z,15.80
2022-11-01T17:54:30.804Z,15.80
2022-11-01T17:57:16.375Z,15.80
2022-11-01T18:00:03.335Z,15.80
2022-11-01T18:02:58.437Z,15.70
2022-11-01T18:05:44.005Z,15.60
2022-11-01T18:08:34.643Z,15.60
2022-11-01T18:11:32.009Z,15.50
2022-11-01T18:14:35.492Z,15.40
2022-11-01T18:17:46.598Z,15.40
2022-11-01T18:20:48.622Z,15.30
2022-11-01T18:23:34.398Z,15.30
2022-11-01T18:26:23.453Z,15.30
2022-11-01T18:29:23.841Z,15.30
2022-11-01T18:32:30.519Z,15.40
2022-11-01T18:35:26.046Z,15.40
2022-11-01T18:38:26.602Z,15.30
2022-11-01T18:41:20.635Z,15.30
2022-11-01T18:44:13.647Z,15.20
2022-11-01T18:47:11.400Z,15.00
2022-11-01T18:49:59.751Z,14.90
2022-11-01T18:52:45.318Z,14.80
2022-11-01T18:55:33.021Z,14.80
2022-11-01T18:58:25.571Z,14.80
2022-11-01T19:01:18.891Z,14.80
2022-11-01T19:04:26.064Z,14.80
2022-11-01T19:07:18.968Z,14.90
2022-11-01T19:10:18.612Z,14.90
2022-11-01T19:13:12.821Z,15.00
2022-11-01T19:16:00.808Z,15.00
2022-11-01T19:18:48.082Z,15.10
2022-11-01T19:21:35.696Z,15.10
2022-11-01T19:24:36.067Z,15.10
2022-11-01T19:27:23.254Z,15.10
2022-11-01T19:30:25.140Z,15.10
2022-11-01T19:33:27.261Z,15.00
2022-11-01T19:36:21.097Z,15.10
2022-11-01T19:39:38.238Z,15.10
2022-11-01T19:42:32.110Z,15.10
2022-11-01T19:45:40.812Z,15.10
2022-11-01T19:48:29.955Z,15.10
2022-11-01T19:51:20.335Z,15.10
2022-11-01T19:54:11.811Z,15.10
2022-11-01T19:57:00.724Z,15.10
2022-11-01T19:59:46.692Z,15.10
2022-11-01T20:02:32.235Z,15.10
2022-11-01T20:05:33.434Z,15.10
2022-11-01T20:08:34.595Z,15.00
2022-11-01T20:11:20.463Z,15.10
2022-11-01T20:14:06.215Z,15.10
2022-11-01T20:16:51.952Z,15.10
2022-11-01T20:19:37.049Z,15.00
2022-11-01T20:22:23.066Z,14.90
2022-11-01T20:25:09.738Z,14.90
2022-11-01T20:27:55.065Z,14.90
2022-11-01T20:30:40.717Z,14.90
2022-11-01T20:33:26.446Z,14.90
2022-11-01T20:36:12.806Z,14.90
2022-11-01T20:38:58.519Z,14.90
2022-11-01T20:41:43.993Z,14.90
2022-11-01T20:44:29.514Z,14.90
2022-11-01T20:47:14.945Z,14.80
2022-11-01T20:50:03.536Z,14.80
2022-11-01T20:52:49.423Z,14.90
2022-11-01T20:55:34.937Z,14.90
2022-11-01T20:58:20.359Z,14.90
2022-11-01T21:01:17.053Z,14.90
2022-11-01T21:04:02.505Z,14.90
2022-11-01T21:06:47.904Z,14.90
2022-11-01T21:09:43.633Z,14.90
2022-11-01T21:12:47.570Z,14.90
2022-11-01T21:15:38.306Z,14.90
2022-11-01T21:18:30.528Z,14.80
2022-11-01T21:21:15.677Z,14.80
2022-11-01T21:24:20.752Z,14.80
2022-11-01T21:27:12.469Z,14.90
2022-11-01T21:30:14.853Z,14.80
2022-11-01T21:33:00.441Z,14.90
2022-11-01T21:35:45.983Z,14.80
2022-11-01T21:38:40.155Z,14.80
2022-11-01T21:41:44.960Z,14.80
2022-11-01T21:44:41.780Z,14.80
2022-11-01T21:47:30.561Z,14.80
2022-11-01T21:50:15.869Z,14.70
2022-11-01T21:53:01.869Z,14.70
2022-11-01T21:55:47.672Z,14.70
2022-11-01T21:58:33.164Z,14.60
2022-11-01T22:01:18.872Z,14.60
2022-11-01T22:04:04.424Z,14.50
2022-11-01T22:06:49.927Z,14.40
2022-11-01T22:09:36.728Z,14.30
2022-11-01T22:12:22.233Z,14.30
2022-11-01T22:15:08.450Z,14.20
2022-11-01T22:17:53.897Z,14.10
2022-11-01T22:20:39.344Z,14.00
2022-11-01T22:23:24.799Z,13.90
2022-11-01T22:26:11.301Z,13.80
2022-11-01T22:28:57.002Z,13.60
2022-11-01T22:31:42.462Z,13.50
2022-11-01T22:34:28.006Z,13.30
2022-11-01T22:37:13.628Z,13.20
2022-11-01T22:39:59.008Z,13.00
2022-11-01T22:42:44.708Z,12.90
2022-11-01T22:45:30.437Z,12.70
2022-11-01T22:48:18.531Z,12.60
2022-11-01T22:51:11.835Z,12.60
2022-11-01T22:53:59.504Z,12.60
2022-11-01T22:56:44.951Z,12.50
2022-11-01T22:59:33.734Z,12.40
2022-11-01T23:02:29.473Z,12.40
2022-11-01T23:05:25.836Z,12.30
2022-11-01T23:08:34.680Z,12.30
2022-11-01T23:11:40.352Z,12.30
2022-11-01T23:14:37.303Z,12.30
2022-11-01T23:17:26.946Z,12.20
2022-11-01T23:20:12.581Z,12.20
2022-11-01T23:22:59.555Z,12.10
2022-11-01T23:25:45.851Z,12.10
2022-11-01T23:28:35.257Z,12.10
2022-11-01T23:31:21.681Z,12.00
2022-11-01T23:34:10.623Z,12.00
2022-11-01T23:36:55.934Z,12.00
2022-11-01T23:39:41.401Z,11.90
2022-11-01T23:42:27.091Z,11.90
2022-11-01T23:45:30.842Z,11.90
2022-11-01T23:48:16.037Z,11.90
2022-11-01T23:51:02.486Z,11.90
2022-11-01T23:53:51.354Z,11.90
2022-11-01T23:56:37.232Z,11.90
2022-11-01T23:59:22.701Z,11.90
